Latest Weather Observations for Kingaroy

IDQ60901

Issued at 6:01 am EST Friday 21 January 2022 (issued every 10 minutes, with the page automatically refreshed every 10 minutes)

About weather observations | Map of Brisbane area stations | Latest observations for Brisbane area | Other Formats
Station Details ID: 040922 Name: KINGAROY AIRPORT Lat: -26.57 Lon: 151.84 Height: 433.67 m
Data from the previous 72 hours. | See also: Recent months at Kingaroy
Date/Time
EST
Temp
°C
App
Temp
°C
Dew
Point
°C
Rel
Hum
%
Delta-T
°C
Wind Press
QNH
hPa
Press
MSL
hPa
Rain since
9am
mm
Dir  Spd
km/h
Gust
km/h
Spd
kts
Gust
kts
21/06:00am 18.0 17.0 16.7 92 0.8 SE 17 32 9 17 1019.7 1017.2 7.0
21/05:53am 17.9 17.0 16.8 93 0.7 SE 17 30 9 16 1019.8 1017.3 7.0
21/05:47am 17.9 17.0 16.8 93 0.7 SE 17 26 9 14 1019.7 1017.2 7.0
21/05:30am 17.9 17.4 16.8 93 0.7 SE 15 28 8 15 1019.7 1017.2 7.0
21/05:03am 18.0 16.7 16.9 93 0.7 SE 19 32 10 17 1019.3 1016.7 7.0
21/05:00am 18.0 16.7 16.9 93 0.7 SE 19 32 10 17 1019.3 1016.7 7.0
21/04:30am 18.1 17.3 17.1 94 0.6 SE 17 28 9 15 1019.1 1016.5 7.0
21/04:00am 17.9 17.3 17.6 98 0.2 SE 17 30 9 16 1019.0 1016.4 7.0
21/03:30am 17.9 17.4 17.7 99 0.1 SE 17 26 9 14 1019.0 1016.4 7.0
21/03:00am 17.8 16.8 17.6 99 0.1 SE 19 32 10 17 1019.0 1016.4 7.0
21/02:58am 17.9 17.0 17.7 99 0.1 SE 19 32 10 17 1019.0 1016.4 7.0
21/02:31am 17.8 16.6 17.6 99 0.1 SE 20 32 11 17 1019.1 1016.5 7.0
21/02:30am 17.8 16.6 17.6 99 0.1 SE 20 30 11 16 1019.1 1016.5 7.0
21/02:00am 17.9 16.9 17.9 100 0.0 SE 20 30 11 16 1019.1 1016.5 6.6
21/01:30am 18.3 17.1 18.3 100 0.0 SE 22 35 12 19 1019.3 1016.7 6.2
21/01:00am 18.3 17.1 18.3 100 0.0 SE 22 33 12 18 1019.5 1017.0 6.0
21/12:30am 18.7 18.2 18.7 100 0.0 SE 19 30 10 16 1019.4 1016.8 5.4
21/12:01am 18.9 17.5 18.7 99 0.1 SE 24 39 13 21 1019.5 1017.0 5.4
21/12:00am 18.9 17.5 18.7 99 0.1 SE 24 39 13 21 1019.5 1017.0 5.4
 
Date/Time
EST
Temp
°C
App
Temp
°C
Dew
Point
°C
Rel
Hum
%
Delta-T
°C
Wind Press
QNH
hPa
Press
MSL
hPa
Rain since
9am
mm
Dir  Spd
km/h
Gust
km/h
Spd
kts
Gust
kts
20/11:49pm 18.9 17.8 18.7 99 0.1 SE 22 37 12 20 1019.6 1017.1 5.4
20/11:47pm 18.9 17.5 18.7 99 0.1 SE 24 39 13 21 1019.6 1017.1 5.4
20/11:30pm 18.9 17.8 18.7 99 0.1 SE 22 33 12 18 1019.6 1017.1 5.4
20/11:00pm 19.5 19.4 19.5 100 0.0 SE 19 30 10 16 1019.6 1017.1 5.0
20/10:58pm 19.5 19.4 19.5 100 0.0 SE 19 30 10 16 1019.5 1017.0 5.0
20/10:38pm 19.7 19.0 19.5 99 0.1 ESE 22 41 12 22 1019.6 1017.1 4.8
20/10:30pm 19.6 19.5 19.6 100 0.0 ESE 19 32 10 17 1019.6 1017.1 4.8
20/10:25pm 19.5 19.4 19.5 100 0.0 ESE 19 33 10 18 1019.6 1017.1 4.8
20/10:02pm 19.6 18.9 19.6 100 0.0 ESE 22 35 12 19 1019.6 1017.1 4.8
20/10:00pm 19.6 18.9 19.6 100 0.0 ESE 22 35 12 19 1019.6 1017.1 4.8
20/09:39pm 19.5 19.8 19.5 100 0.0 ESE 17 30 9 16 1019.6 1017.1 4.6
20/09:30pm 19.7 19.4 19.5 99 0.1 ESE 20 33 11 18 1019.5 1017.0 4.6
20/09:12pm 19.7 19.4 19.5 99 0.1 ESE 20 37 11 20 1019.4 1016.8 4.6
20/09:00pm 19.6 19.3 19.6 100 0.0 ESE 20 30 11 16 1019.4 1016.8 4.6
20/08:57pm 19.5 19.2 19.5 100 0.0 ESE 20 30 11 16 1019.4 1016.8 4.6
20/08:50pm 19.6 19.5 19.6 100 0.0 ESE 19 32 10 17 1019.4 1016.8 3.6
20/08:35pm 19.8 19.7 19.6 99 0.1 ESE 19 28 10 15 1019.4 1016.8 2.8
20/08:30pm 20.0 20.4 19.8 99 0.1 ESE 17 30 9 16 1019.2 1016.6 2.6
20/08:00pm 20.0 19.8 19.8 99 0.1 ESE 20 35 11 19 1019.0 1016.4 2.6
20/07:51pm 19.9 19.9 19.7 99 0.1 ESE 19 35 10 19 1019.1 1016.5 2.6
20/07:35pm 19.7 20.8 19.7 100 0.0 SE 13 22 7 12 1018.8 1016.2 2.6
20/07:30pm 19.7 20.4 19.7 100 0.0 SE 15 22 8 12 1018.6 1016.1 2.6
20/07:27pm 19.7 20.4 19.7 100 0.0 SE 15 22 8 12 1018.5 1016.0 2.6
20/07:21pm 19.7 20.3 19.5 99 0.1 ESE 15 24 8 13 1018.5 1016.0 2.6
20/07:19pm 19.8 20.1 19.6 99 0.1 ESE 17 26 9 14 1018.5 1016.0 2.6
20/07:13pm 19.7 20.0 19.5 99 0.1 SE 17 26 9 14 1018.4 1015.9 2.4
20/07:00pm 20.0 20.3 19.7 98 0.2 SE 17 28 9 15 1018.4 1015.9 2.4
20/06:30pm 20.0 20.0 19.8 99 0.1 SE 19 30 10 16 1018.0 1015.5 2.4
20/06:00pm 19.9 19.3 19.7 99 0.1 ESE 22 33 12 18 1018.0 1015.5 2.4
20/05:52pm 19.9 19.7 19.7 99 0.1 ESE 20 41 11 22 1017.9 1015.4 2.4
20/05:44pm 19.9 19.3 19.7 99 0.1 ESE 22 39 12 21 1017.7 1015.2 2.2
20/05:31pm 20.1 18.7 19.6 97 0.3 SE 26 43 14 23 1017.6 1015.1 2.2
20/05:30pm 20.1 18.7 19.6 97 0.3 SE 26 43 14 23 1017.6 1015.1 2.2
20/05:12pm 20.4 20.4 20.2 99 0.1 ESE 20 33 11 18 1017.3 1014.7 2.2
20/05:00pm 20.2 19.4 20.0 99 0.1 ESE 24 35 13 19 1017.2 1014.6 2.2
20/04:46pm 20.5 20.2 19.5 94 0.6 SE 20 48 11 26 1017.1 1014.5 1.8
20/04:30pm 21.7 22.1 20.7 94 0.7 SSE 19 26 10 14 1016.5 1013.9 1.2
20/04:00pm 22.3 23.7 21.1 93 0.8 SE 15 24 8 13 1016.4 1013.8 1.2
20/03:42pm 21.8 23.3 21.3 97 0.3 ESE 15 20 8 11 1016.4 1013.8 1.2
20/03:30pm 21.2 22.5 20.9 98 0.2 SE 15 24 8 13 1016.5 1013.9 1.2
20/03:00pm 22.0 22.9 21.5 97 0.3 ESE 19 28 10 15 1016.7 1014.1 0.6
20/02:30pm 21.1 22.2 20.4 96 0.5 ESE 15 24 8 13 1016.9 1014.3 0.6
20/02:11pm 20.7 20.9 20.2 97 0.3 ESE 19 26 10 14 1016.9 1014.3 0.4
20/02:00pm 20.5 19.9 19.8 96 0.5 ESE 22 35 12 19 1017.0 1014.4 0.4
20/01:57pm 20.5 19.7 20.0 97 0.3 ESE 24 35 13 19 1017.0 1014.4 0.2
20/01:50pm 20.6 19.6 19.6 94 0.6 ESE 24 46 13 25 1017.1 1014.5 0.0
20/01:46pm 21.0 20.0 18.9 88 1.3 ESE 22 46 12 25 1017.1 1014.5 0.0
20/01:30pm 22.9 22.9 19.7 82 2.1 ESE 19 30 10 16 1016.8 1014.2 0.0
20/01:16pm 23.1 22.5 19.7 81 2.2 SE 22 37 12 20 1016.9 1014.3 0.0
20/01:00pm 22.3 21.5 20.0 87 1.5 SSE 24 35 13 19 1016.9 1014.3 0.0
20/12:37pm 24.1 24.0 19.6 76 2.9 SE 19 30 10 16 1016.8 1014.2 0.0
20/12:30pm 24.3 24.6 20.4 79 2.6 SE 19 28 10 15 1016.8 1014.2 0.0
20/12:00pm 23.8 24.4 21.1 85 1.8 SE 19 30 10 16 1017.0 1014.4 0.0
20/11:48am 23.0 23.0 20.1 84 1.9 ESE 20 33 11 18 1017.1 1014.5 0.0
20/11:30am 22.2 23.3 21.2 94 0.7 SE 17 24 9 13 1017.4 1014.9 0.0
20/11:00am 22.9 23.2 19.5 81 2.2 SE 17 28 9 15 1017.7 1015.2 0.0
20/10:30am 22.5 22.8 19.5 83 1.9 ESE 17 28 9 15 1018.0 1015.5 0.0
20/10:00am 22.1 22.6 20.0 88 1.4 ESE 17 26 9 14 1018.0 1015.5 0.0
20/09:30am 21.6 21.5 19.5 88 1.4 ESE 19 28 10 15 1017.7 1015.2 0.0
20/09:00am 21.1 21.3 19.4 90 1.1 ESE 17 24 9 13 1017.6 1015.1 2.2
20/08:30am 20.8 21.4 20.3 97 0.3 ESE 17 24 9 13 1017.4 1014.9 2.2
20/08:26am 20.9 21.4 20.1 95 0.5 ESE 17 26 9 14 1017.3 1014.7 2.2
20/08:11am 20.9 21.1 20.1 95 0.5 ESE 19 28 10 15 1017.1 1014.5 2.2
20/08:00am 20.8 20.7 20.0 95 0.5 ESE 20 32 11 17 1017.0 1014.4 2.2
20/07:30am 20.7 21.0 20.4 98 0.2 ESE 19 32 10 17 1016.6 1014.0 2.2
20/07:00am 20.4 21.0 20.2 99 0.1 SE 17 28 9 15 1016.2 1013.7 2.2
20/06:46am 20.4 21.8 20.4 100 0.0 SE 13 24 7 13 1016.2 1013.7 2.2
20/06:30am 20.1 21.4 20.1 100 0.0 SE 13 20 7 11 1016.1 1013.6 2.2
20/06:22am 20.0 20.9 20.0 100 0.0 SE 15 26 8 14 1016.1 1013.6 2.2
20/06:00am 20.0 20.5 20.0 100 0.0 SE 17 24 9 13 1015.9 1013.4 2.2
20/05:30am 19.9 20.7 19.9 100 0.0 SE 15 24 8 13 1015.7 1013.2 2.2
20/05:00am 19.9 21.1 19.9 100 0.0 SE 13 20 7 11 1015.3 1012.7 2.2
20/04:30am 20.0 21.2 20.0 100 0.0 SE 13 20 7 11 1015.2 1012.6 2.2
20/04:00am 19.9 21.5 19.9 100 0.0 SE 11 20 6 11 1015.0 1012.4 2.2
20/03:30am 19.9 21.5 19.9 100 0.0 SE 11 17 6 9 1014.8 1012.2 2.2
20/03:23am 19.8 21.3 19.8 100 0.0 SE 11 17 6 9 1014.8 1012.2 2.2
20/03:22am 19.8 21.3 19.8 100 0.0 SE 11 17 6 9 1014.8 1012.2 2.2
20/03:16am 19.8 21.0 19.8 100 0.0 SE 13 19 7 10 1014.8 1012.2 2.2
20/03:11am 19.8 21.3 19.8 100 0.0 SE 11 17 6 9 1014.8 1012.2 2.2
20/03:09am 19.8 21.3 19.8 100 0.0 SE 11 17 6 9 1014.8 1012.2 2.2
20/03:00am 19.8 21.3 19.8 100 0.0 SE 11 17 6 9 1014.9 1012.3 2.2
20/02:33am 19.9 20.7 19.9 100 0.0 SE 15 24 8 13 1014.8 1012.2 2.0
20/02:30am 19.9 21.1 19.9 100 0.0 SE 13 24 7 13 1014.8 1012.2 2.0
20/02:00am 20.3 20.9 20.3 100 0.0 SE 17 22 9 12 1015.1 1012.5 2.0
20/01:43am 20.4 21.8 20.4 100 0.0 SSE 13 20 7 11 1015.2 1012.6 2.0
20/01:30am 20.4 21.5 20.4 100 0.0 SSE 15 20 8 11 1015.4 1012.9 2.0
20/01:24am 20.4 21.1 20.4 100 0.0 SSE 17 26 9 14 1015.4 1012.9 2.0
20/01:16am 20.7 21.9 20.7 100 0.0 SSE 15 26 8 14 1015.3 1012.7 1.2
20/01:00am 21.7 24.8 21.5 99 0.1 SSE 7 11 4 6 1015.3 1012.7 0.0
20/12:30am 21.8 24.6 21.6 99 0.1 SSE 9 13 5 7 1015.6 1013.1 0.0
20/12:00am 22.0 25.5 21.8 99 0.1 SE 6 9 3 5 1015.7 1013.2 0.0
 
Date/Time
EST
Temp
°C
App
Temp
°C
Dew
Point
°C
Rel
Hum
%
Delta-T
°C
Wind Press
QNH
hPa
Press
MSL
hPa
Rain since
9am
mm
Dir  Spd
km/h
Gust
km/h
Spd
kts
Gust
kts
19/11:30pm 22.1 25.5 21.6 97 0.3 SE 6 9 3 5 1016.0 1013.5 0.0
19/11:00pm 22.1 25.3 21.6 97 0.3 ESE 7 11 4 6 1016.0 1013.5 0.0
19/10:30pm 22.2 25.2 22.0 99 0.1 ESE 9 13 5 7 1016.0 1013.5 0.0
19/10:00pm 22.2 25.6 22.0 99 0.1 ESE 7 11 4 6 1015.6 1013.1 0.0
19/09:30pm 22.2 25.6 22.0 99 0.1 SE 7 13 4 7 1015.6 1013.1 0.0
19/09:00pm 22.2 25.6 22.0 99 0.1 SE 7 13 4 7 1015.2 1012.6 0.0
19/08:30pm 22.7 25.1 21.5 93 0.8 SE 11 17 6 9 1014.9 1012.3 0.0
19/08:00pm 23.8 24.1 18.7 73 3.3 E 15 20 8 11 1014.2 1011.6 0.0
19/07:30pm 24.3 25.8 18.9 72 3.5 E 9 13 5 7 1013.6 1011.1 0.0
19/07:00pm 24.6 25.8 19.0 71 3.6 ENE 11 17 6 9 1013.1 1010.5 0.0
19/06:30pm 25.4 26.6 19.1 68 4.1 ENE 11 17 6 9 1012.8 1010.2 0.0
19/06:00pm 26.5 28.0 18.9 63 5.0 ENE 9 19 5 10 1012.3 1009.7 0.0
19/05:30pm 27.9 28.4 18.3 56 6.2 ENE 13 20 7 11 1011.8 1009.2 0.0
19/05:00pm 29.2 30.7 18.9 53 6.8 NE 9 17 5 9 1011.3 1008.8 0.0
19/04:30pm 28.8 28.9 18.3 53 6.8 E 15 22 8 12 1011.5 1008.9 0.0
19/04:00pm 28.9 28.3 18.4 53 6.8 E 19 28 10 15 1011.2 1008.7 0.0
19/03:30pm 31.2 31.5 17.9 45 8.7 SSE 13 17 7 9 1011.1 1008.5 0.0
19/03:00pm 30.4 30.7 17.1 44 8.6 ESE 11 20 6 11 1011.5 1008.9 0.0
19/02:30pm 30.1 30.7 16.9 45 8.4 SE 9 13 5 7 1011.8 1009.2 0.0
19/02:00pm 30.6 32.4 18.7 49 7.8 ENE 7 15 4 8 1012.4 1009.8 0.0
19/01:30pm 29.3 29.5 16.8 47 8.0 ENE 11 19 6 10 1012.6 1010.0 0.0
19/01:00pm 29.0 30.0 17.8 50 7.2 SW 9 13 5 7 1013.1 1010.5 0.0
19/12:30pm 28.5 30.6 18.0 53 6.8 SSE 4 9 2 5 1013.4 1010.9 0.0
19/12:00pm 28.1 29.4 17.6 53 6.7 NNE 7 11 4 6 1013.7 1011.2 0.0
19/11:30am 27.7 28.5 17.3 53 6.6 E 9 15 5 8 1013.8 1011.3 0.0
19/11:00am 27.5 29.1 18.2 57 6.0 ESE 7 11 4 6 1014.2 1011.6 0.0
19/10:30am 27.0 29.2 18.3 59 5.6 ESE 4 9 2 5 1014.5 1011.9 0.0
19/10:00am 26.8 28.5 18.6 60 5.3 NE 7 11 4 6 1014.6 1012.0 0.0
19/09:30am 26.5 28.6 18.9 63 5.0 NW 6 17 3 9 1014.4 1011.8 0.0
19/09:00am 25.2 26.3 17.9 64 4.7 NNE 9 19 5 10 1014.4 1011.8 0.0
19/08:30am 24.2 25.9 19.3 74 3.2 NE 9 15 5 8 1014.4 1011.8 0.0
19/08:00am 25.0 26.8 19.6 72 3.5 ENE 9 15 5 8 1014.3 1011.7 0.0
19/07:56am 25.1 27.2 20.1 74 3.3 ENE 9 15 5 8 1014.3 1011.7 0.0
19/07:30am 23.7 25.9 19.6 78 2.7 ENE 7 11 4 6 1014.3 1011.7 0.0
19/07:24am 23.8 26.7 19.9 79 2.6 ENE 4 11 2 6 1014.3 1011.7 0.0
19/07:00am 22.5 25.5 20.0 86 1.6 NNE 4 7 2 4 1014.2 1011.6 0.0
19/06:30am 22.6 26.7 20.7 89 1.3 CALM 0 6 0 3 1013.8 1011.3 0.0
19/06:00am 20.7 24.7 20.5 99 0.1 CALM 0 0 0 0 1013.5 1011.0 0.0
19/05:44am 20.5 24.5 20.5 100 0.0 CALM 0 0 0 0 1013.2 1010.6 0.0
19/05:30am 20.5 24.5 20.5 100 0.0 CALM 0 0 0 0 1013.0 1010.4 0.0
19/05:00am 20.3 24.2 20.3 100 0.0 CALM 0 0 0 0 1012.5 1009.9 0.0
19/04:30am 20.2 24.0 20.2 100 0.0 CALM 0 0 0 0 1012.1 1009.5 0.0
19/04:00am 20.0 23.7 20.0 100 0.0 CALM 0 0 0 0 1011.9 1009.3 0.0
19/03:34am 19.7 23.3 19.7 100 0.0 CALM 0 0 0 0 1011.6 1009.0 0.0
19/03:30am 19.6 23.0 19.4 99 0.1 CALM 0 0 0 0 1011.6 1009.0 0.0
19/03:10am 19.7 22.0 19.5 99 0.1 E 6 7 3 4 1011.2 1008.7 0.0
19/03:00am 19.8 22.2 19.6 99 0.1 E 6 7 3 4 1011.1 1008.5 0.0
19/02:42am 19.9 23.5 19.7 99 0.1 CALM 0 0 0 0 1011.5 1008.9 0.0
19/02:30am 20.0 23.6 19.7 98 0.2 CALM 0 0 0 0 1011.5 1008.9 0.0
19/02:00am 20.2 22.6 19.7 97 0.3 NE 6 9 3 5 1011.3 1008.8 0.0
19/01:30am 20.6 23.7 19.6 94 0.6 ENE 2 7 1 4 1011.9 1009.3 0.0
19/01:00am 21.0 23.1 19.3 90 1.1 NE 7 13 4 7 1012.1 1009.5 0.0
19/12:30am 21.7 22.5 19.1 85 1.7 NNE 13 20 7 11 1012.6 1010.0 0.0
19/12:00am 21.9 25.4 19.5 86 1.6 CALM 0 0 0 0 1013.6 1011.1 0.0
 
Date/Time
EST
Temp
°C
App
Temp
°C
Dew
Point
°C
Rel
Hum
%
Delta-T
°C
Wind Press
QNH
hPa
Press
MSL
hPa
Rain since
9am
mm
Dir  Spd
km/h
Gust
km/h
Spd
kts
Gust
kts
18/11:30pm 22.2 24.4 19.2 83 1.9 SW 6 13 3 7 1014.2 1011.6 0.0
18/11:00pm 22.2 23.9 18.6 80 2.3 E 7 9 4 5 1014.0 1011.4 0.0
18/10:30pm 22.4 24.1 18.4 78 2.6 E 7 11 4 6 1014.0 1011.4 0.0
18/10:00pm 22.6 23.7 18.8 79 2.4 E 11 17 6 9 1013.8 1011.3 0.0
18/09:30pm 22.9 24.6 19.3 80 2.3 E 9 13 5 7 1013.8 1011.3 0.0
18/09:00pm 23.2 25.0 19.6 80 2.3 E 9 13 5 7 1013.5 1011.0 0.0
18/08:30pm 23.9 26.1 19.6 77 2.8 E 7 13 4 7 1012.6 1010.0 0.0
18/08:00pm 24.4 26.6 19.5 74 3.2 E 7 13 4 7 1012.2 1009.6 0.0
18/07:30pm 25.1 26.7 19.2 70 3.8 ENE 9 13 5 7 1011.9 1009.3 0.0
18/07:00pm 25.9 28.1 19.5 68 4.2 ENE 7 13 4 7 1011.3 1008.8 0.0
18/06:30pm 26.5 28.6 20.1 68 4.2 NE 9 15 5 8 1010.9 1008.3 0.0
18/06:00pm 27.2 28.7 19.8 64 4.9 NE 11 19 6 10 1010.5 1007.9 0.0
18/05:30pm 28.5 29.6 19.7 59 5.8 ENE 13 19 7 10 1010.1 1007.5 0.0
18/05:00pm 29.1 30.7 18.2 51 7.1 ENE 7 15 4 8 1009.7 1007.1 0.0
18/04:30pm 30.0 31.1 18.8 51 7.4 E 11 19 6 10 1010.2 1007.6 0.0
18/04:00pm 29.4 31.1 18.5 52 7.1 ESE 7 13 4 7 1009.7 1007.1 0.0
18/03:30pm 29.8 31.3 17.6 48 7.9 SE 6 13 3 7 1010.1 1007.5 0.0
18/03:00pm 28.7 30.2 18.8 55 6.5 ENE 9 13 5 7 1010.8 1008.2 0.0
18/02:30pm 29.0 31.4 18.7 53 6.7 WSW 4 11 2 6 1011.3 1008.8 0.0
18/02:00pm 28.8 30.9 18.0 52 7.0 ENE 4 9 2 5 1011.8 1009.2 0.0
18/01:30pm 30.1 32.4 18.5 49 7.6 SSE 4 9 2 5 1012.1 1009.5 0.0
18/01:00pm 28.4 29.9 18.8 56 6.3 NNE 9 17 5 9 1012.6 1010.0 0.0
18/12:30pm 27.4 28.7 18.4 58 5.8 NE 9 13 5 7 1013.0 1010.4 0.0
18/12:00pm 27.6 29.0 18.6 58 5.9 NE 9 13 5 7 1013.5 1011.0 0.0
18/11:30am 27.5 29.0 18.8 59 5.7 E 9 13 5 7 1014.0 1011.4 0.0
18/11:00am 26.2 27.0 19.1 65 4.6 NNE 13 20 7 11 1014.3 1011.7 0.0
18/10:30am 25.9 27.5 19.1 66 4.4 NE 9 15 5 8 1014.5 1011.9 0.0
18/10:00am 25.3 26.3 18.7 67 4.3 NNE 11 15 6 8 1014.5 1011.9 0.0
18/09:30am 25.9 27.6 19.3 67 4.3 NNE 9 15 5 8 1014.4 1011.8 0.0
18/09:00am 25.6 26.2 18.5 65 4.6 NE 13 19 7 10 1014.4 1011.8 0.0
18/08:30am 25.2 25.7 19.3 70 3.9 NE 15 24 8 13 1014.3 1011.7 0.0
18/08:08am 24.9 26.2 20.2 75 3.1 NNE 13 19 7 10 1014.1 1011.5 0.0
18/08:00am 24.7 26.4 20.2 76 3.0 NE 11 17 6 9 1014.2 1011.6 0.0
18/07:31am 23.6 25.7 20.1 81 2.3 ENE 9 17 5 9 1014.3 1011.7 0.0
18/07:30am 23.7 26.1 20.0 80 2.4 ENE 7 17 4 9 1014.3 1011.7 0.0
18/07:01am 22.3 24.7 20.8 91 1.0 NE 9 11 5 6 1014.1 1011.5 0.0
18/07:00am 22.2 24.8 20.5 90 1.1 NE 7 11 4 6 1014.1 1011.5 0.0
18/06:30am 21.8 25.9 21.6 99 0.1 NE 2 6 1 3 1013.5 1011.0 0.0
18/06:25am 21.6 25.7 21.6 100 0.0 ENE 2 6 1 3 1013.5 1011.0 0.0

Latest Capital City Observations: Canberra | Sydney | Melbourne | Brisbane | Adelaide | Perth | Hobart | Darwin

Other formats

Comma delimited format used in spreadsheet applications
http://www.bom.gov.au/fwo/IDQ60901/IDQ60901.94549.axf

JavaScript Object Notation format (JSON) in row-major order
http://www.bom.gov.au/fwo/IDQ60901/IDQ60901.94549.json

Data quality

Most of these data are generated automatically and are frequently updated. Quality checks on data are not normally performed. It is possible for incorrect values to appear. Refer to information at About Latest Weather Observations and please check the disclaimer before using these data.